Time;durP1;ratioP1;P1;durP2;ratioP2;P2;SDS_P1;SDS_P2;PMS_P1;PMS_P2;Temp;Humidity;BMP_temperature;BMP_pressure;BME280_temperature;BME280_humidity;BME280_pressure;Samples;Min_cycle;Max_cycle;Signal;HPM_P1;HPM_P2
2021/03/23 00:00:36;;;;;;;5.93;4.60;;;;;;;;;;5038578;28;20531;-62
2021/03/23 00:03:23;;;;;;;5.03;4.53;;;;;;;;;;5025197;28;20284;-61
2021/03/23 00:05:49;;;;;;;5.07;4.57;;;;;;;;;;5033162;28;20212;-61
2021/03/23 00:08:29;;;;;;;6.97;4.87;;;;;;;;;;5041856;28;20177;-61
2021/03/23 00:10:57;;;;;;;5.57;4.73;;;;;;;;;;5051540;28;20192;-63
2021/03/23 00:13:24;;;;;;;5.00;4.50;;;;;;;;;;5052309;28;20181;-61
2021/03/23 00:15:50;;;;;;;8.20;5.23;;;;;;;;;;5038935;28;20181;-64
2021/03/23 00:18:17;;;;;;;5.10;4.60;;;;;;;;;;5045611;28;20192;-62
2021/03/23 00:20:44;;;;;;;5.80;4.97;;;;;;;;;;5053612;28;20193;-63
2021/03/23 00:23:10;;;;;;;5.53;4.87;;;;;;;;;;5054106;28;20193;-63
2021/03/23 00:25:37;;;;;;;6.30;5.00;;;;;;;;;;5047916;28;20187;-64
2021/03/23 00:28:07;;;;;;;5.13;4.47;;;;;;;;;;5045592;28;20181;-64
2021/03/23 00:30:36;;;;;;;6.57;5.87;;;;;;;;;;5034418;28;20173;-63
2021/03/23 00:33:02;;;;;;;5.93;5.33;;;;;;;;;;5047355;28;20177;-63
2021/03/23 00:35:28;;;;;;;6.07;5.13;;;;;;;;;;5020247;28;20186;-63
2021/03/23 00:37:56;;;;;;;5.83;4.93;;;;;;;;;;5041554;28;20231;-61
2021/03/23 00:40:23;;;;;;;5.43;4.93;;;;;;;;;;5039085;28;20185;-61
2021/03/23 00:42:49;;;;;;;5.10;4.57;;;;;;;;;;5036949;28;20270;-61
2021/03/23 00:45:21;;;;;;;5.30;4.80;;;;;;;;;;5050820;28;20181;-61
2021/03/23 00:47:48;;;;;;;5.20;4.70;;;;;;;;;;5030054;28;20177;-63
2021/03/23 00:50:14;;;;;;;5.00;4.50;;;;;;;;;;5015399;28;20194;-62
2021/03/23 00:52:41;;;;;;;5.60;5.10;;;;;;;;;;5035477;28;20185;-63
2021/03/23 00:55:07;;;;;;;5.53;4.93;;;;;;;;;;5040357;28;20181;-62
2021/03/23 00:57:33;;;;;;;6.00;5.40;;;;;;;;;;5022701;28;20193;-62
2021/03/23 00:59:59;;;;;;;6.40;5.30;;;;;;;;;;5043769;28;20246;-62
2021/03/23 01:02:25;;;;;;;5.70;4.73;;;;;;;;;;5045265;28;20202;-62
2021/03/23 01:04:51;;;;;;;6.53;5.57;;;;;;;;;;5045740;28;20637;-63
2021/03/23 01:07:18;;;;;;;6.33;4.57;;;;;;;;;;5032383;28;20177;-62
2021/03/23 01:09:44;;;;;;;6.63;5.47;;;;;;;;;;5020548;28;20169;-62
2021/03/23 01:12:11;;;;;;;6.67;4.90;;;;;;;;;;5030848;28;20200;-62
2021/03/23 01:14:38;;;;;;;5.93;5.33;;;;;;;;;;5046138;28;20189;-62
2021/03/23 01:17:04;;;;;;;6.40;5.60;;;;;;;;;;5038933;28;20182;-62
2021/03/23 01:19:30;;;;;;;7.47;5.60;;;;;;;;;;5044917;28;20227;-62
2021/03/23 01:21:56;;;;;;;9.87;5.60;;;;;;;;;;5013304;28;20182;-62
2021/03/23 01:24:22;;;;;;;7.03;5.87;;;;;;;;;;5046013;28;20221;-62
2021/03/23 01:26:48;;;;;;;7.17;6.23;;;;;;;;;;5067223;28;20172;-61
2021/03/23 01:29:14;;;;;;;6.63;5.93;;;;;;;;;;5032301;28;20691;-62
2021/03/23 01:31:40;;;;;;;6.13;5.47;;;;;;;;;;5032126;28;20496;-63
2021/03/23 01:34:06;;;;;;;6.67;5.97;;;;;;;;;;5039175;28;20180;-62
2021/03/23 01:36:32;;;;;;;6.57;5.77;;;;;;;;;;5050916;28;20184;-62
2021/03/23 01:38:58;;;;;;;6.30;5.23;;;;;;;;;;5048388;28;20219;-63
2021/03/23 01:41:25;;;;;;;6.20;5.37;;;;;;;;;;5050021;28;20177;-62
2021/03/23 01:43:52;;;;;;;6.47;5.40;;;;;;;;;;5048252;28;20351;-62
2021/03/23 01:46:38;;;;;;;7.00;5.60;;;;;;;;;;5048730;28;20180;-62
2021/03/23 01:49:06;;;;;;;6.80;6.10;;;;;;;;;;5032035;28;20192;-62
2021/03/23 01:51:33;;;;;;;7.10;5.03;;;;;;;;;;5050687;28;20481;-63
2021/03/23 01:54:00;;;;;;;6.87;5.23;;;;;;;;;;5020539;28;20278;-63
2021/03/23 01:56:27;;;;;;;5.93;5.33;;;;;;;;;;5029981;28;20182;-62
2021/03/23 01:58:54;;;;;;;6.73;5.37;;;;;;;;;;5040006;28;20641;-62
2021/03/23 02:01:20;;;;;;;7.07;5.43;;;;;;;;;;5037754;28;20192;-63
2021/03/23 02:03:47;;;;;;;6.77;5.40;;;;;;;;;;5043051;28;20284;-62
2021/03/23 02:06:32;;;;;;;7.10;6.10;;;;;;;;;;5045741;28;20536;-62
2021/03/23 02:08:59;;;;;;;6.60;5.33;;;;;;;;;;5043134;28;20516;-63
2021/03/23 02:11:26;;;;;;;7.20;4.90;;;;;;;;;;5047850;28;20183;-63
2021/03/23 02:13:53;;;;;;;6.17;4.87;;;;;;;;;;5045389;28;20193;-65
2021/03/23 02:16:19;;;;;;;6.93;5.23;;;;;;;;;;5036198;28;20254;-62
2021/03/23 02:18:45;;;;;;;6.50;5.60;;;;;;;;;;5046746;28;20208;-63
2021/03/23 02:21:19;;;;;;;7.13;5.27;;;;;;;;;;5030190;28;20216;-63
2021/03/23 02:23:50;;;;;;;6.70;5.40;;;;;;;;;;5040401;28;20208;-62
2021/03/23 02:26:18;;;;;;;7.27;5.30;;;;;;;;;;5046297;28;20200;-62
2021/03/23 02:28:59;;;;;;;6.57;5.37;;;;;;;;;;5033625;28;20212;-62
2021/03/23 02:31:33;;;;;;;6.57;5.17;;;;;;;;;;5017173;28;20260;-62
2021/03/23 02:34:00;;;;;;;5.40;4.70;;;;;;;;;;5016408;28;20177;-63
2021/03/23 02:36:27;;;;;;;5.87;5.27;;;;;;;;;;5048962;28;20181;-63
2021/03/23 02:38:54;;;;;;;5.90;5.30;;;;;;;;;;5041086;28;20302;-63
2021/03/23 02:41:20;;;;;;;6.97;5.50;;;;;;;;;;5030195;28;20187;-63
2021/03/23 02:43:46;;;;;;;6.73;5.97;;;;;;;;;;5036280;28;20691;-62
2021/03/23 02:46:12;;;;;;;6.10;5.47;;;;;;;;;;5032812;28;20216;-62
2021/03/23 02:48:38;;;;;;;7.90;5.63;;;;;;;;;;5040001;28;20266;-63
2021/03/23 02:51:05;;;;;;;6.13;5.53;;;;;;;;;;5059508;28;20204;-63
2021/03/23 02:53:31;;;;;;;7.83;5.87;;;;;;;;;;5034974;28;20182;-63
2021/03/23 02:55:58;;;;;;;6.67;5.33;;;;;;;;;;5035575;28;20193;-64
2021/03/23 02:58:24;;;;;;;6.07;5.47;;;;;;;;;;5044462;28;20616;-63
2021/03/23 03:00:50;;;;;;;6.50;5.37;;;;;;;;;;5039999;28;20236;-62
2021/03/23 03:03:16;;;;;;;6.70;5.10;;;;;;;;;;5031690;28;20209;-63
2021/03/23 03:05:42;;;;;;;7.97;5.27;;;;;;;;;;5011148;28;20186;-63
2021/03/23 03:08:08;;;;;;;5.03;4.53;;;;;;;;;;5025020;28;20184;-63
2021/03/23 03:10:35;;;;;;;7.13;5.63;;;;;;;;;;5035158;28;20232;-63
2021/03/23 03:13:01;;;;;;;6.00;4.93;;;;;;;;;;5018188;28;20193;-63
2021/03/23 03:15:29;;;;;;;6.17;4.97;;;;;;;;;;5059175;28;20184;-62
2021/03/23 03:17:55;;;;;;;5.60;4.73;;;;;;;;;;5048687;28;20185;-63
2021/03/23 03:20:21;;;;;;;6.97;5.03;;;;;;;;;;5041556;28;20512;-63
2021/03/23 03:22:47;;;;;;;7.00;4.80;;;;;;;;;;5018959;28;20201;-63
2021/03/23 03:25:15;;;;;;;7.20;5.20;;;;;;;;;;5039520;28;20186;-63
2021/03/23 03:27:41;;;;;;;6.87;5.27;;;;;;;;;;5044167;28;20243;-62
2021/03/23 03:30:08;;;;;;;5.87;5.00;;;;;;;;;;5034624;28;20178;-63
2021/03/23 03:32:34;;;;;;;5.43;4.93;;;;;;;;;;5032817;28;20181;-63
2021/03/23 03:35:00;;;;;;;6.03;4.47;;;;;;;;;;5032732;28;20185;-64
2021/03/23 03:37:26;;;;;;;5.27;4.20;;;;;;;;;;5033198;28;20248;-63
2021/03/23 03:39:52;;;;;;;5.30;4.57;;;;;;;;;;5036571;28;20185;-63
2021/03/23 03:42:18;;;;;;;6.20;4.23;;;;;;;;;;5039170;28;20206;-65
2021/03/23 03:44:44;;;;;;;6.33;4.50;;;;;;;;;;5045033;28;20667;-62
2021/03/23 03:47:11;;;;;;;6.50;5.23;;;;;;;;;;5046503;28;20239;-63
2021/03/23 03:49:37;;;;;;;7.30;4.60;;;;;;;;;;5051111;28;20228;-63
2021/03/23 03:52:03;;;;;;;5.50;4.87;;;;;;;;;;5041916;28;20182;-64
2021/03/23 03:54:29;;;;;;;6.80;5.17;;;;;;;;;;5044826;28;20578;-63
2021/03/23 03:56:55;;;;;;;5.67;4.83;;;;;;;;;;5036347;28;20201;-63
2021/03/23 03:59:21;;;;;;;5.30;4.33;;;;;;;;;;5051598;28;20264;-63
2021/03/23 04:01:47;;;;;;;4.93;4.37;;;;;;;;;;5052228;28;20526;-63
2021/03/23 04:04:13;;;;;;;6.53;5.00;;;;;;;;;;5044975;28;20193;-64
2021/03/23 04:06:39;;;;;;;5.27;4.50;;;;;;;;;;5033656;28;20190;-63
2021/03/23 04:09:05;;;;;;;5.90;4.70;;;;;;;;;;5046200;28;20449;-63
2021/03/23 04:11:32;;;;;;;6.10;5.00;;;;;;;;;;5050794;28;20242;-63
2021/03/23 04:13:58;;;;;;;6.90;4.97;;;;;;;;;;5048955;28;20220;-64
2021/03/23 04:16:24;;;;;;;7.90;5.83;;;;;;;;;;5036454;28;20177;-63
2021/03/23 04:18:50;;;;;;;6.27;5.03;;;;;;;;;;5037581;28;20209;-63
2021/03/23 04:21:16;;;;;;;5.97;5.10;;;;;;;;;;5049777;28;20612;-63
2021/03/23 04:23:43;;;;;;;5.70;4.87;;;;;;;;;;5024174;28;20243;-63
2021/03/23 04:26:11;;;;;;;5.30;4.80;;;;;;;;;;5049930;28;20185;-64
2021/03/23 04:28:40;;;;;;;6.43;5.30;;;;;;;;;;5043604;28;20178;-63
2021/03/23 04:31:07;;;;;;;6.00;5.10;;;;;;;;;;5015739;28;20192;-63
2021/03/23 04:33:34;;;;;;;6.27;5.17;;;;;;;;;;5051046;28;20209;-63
2021/03/23 04:36:01;;;;;;;7.03;5.40;;;;;;;;;;5015845;28;20185;-63
2021/03/23 04:38:29;;;;;;;6.70;5.97;;;;;;;;;;5024765;28;20703;-63
2021/03/23 04:40:56;;;;;;;8.40;5.60;;;;;;;;;;5031439;28;20226;-62
2021/03/23 04:43:27;;;;;;;7.17;5.70;;;;;;;;;;5051341;28;20209;-63
2021/03/23 04:45:53;;;;;;;7.17;6.00;;;;;;;;;;5046197;28;20533;-63
2021/03/23 04:48:19;;;;;;;6.73;5.40;;;;;;;;;;5034956;28;20182;-64
2021/03/23 04:50:46;;;;;;;8.40;6.87;;;;;;;;;;5046541;28;20197;-62
2021/03/23 04:53:22;;;;;;;8.87;6.40;;;;;;;;;;5048413;28;20272;-64
2021/03/23 04:55:48;;;;;;;8.40;7.33;;;;;;;;;;5019210;28;20185;-62
2021/03/23 04:58:14;;;;;;;8.00;6.73;;;;;;;;;;5039290;28;20192;-64
2021/03/23 05:00:40;;;;;;;9.63;6.33;;;;;;;;;;5045363;28;20284;-63
2021/03/23 05:03:11;;;;;;;9.00;6.93;;;;;;;;;;5017145;28;20212;-63
2021/03/23 05:05:37;;;;;;;9.53;7.60;;;;;;;;;;5034987;28;20643;-64
2021/03/23 05:08:03;;;;;;;10.83;7.67;;;;;;;;;;5029661;28;20177;-63
2021/03/23 05:10:29;;;;;;;8.77;7.77;;;;;;;;;;5045853;28;20204;-63
2021/03/23 05:12:55;;;;;;;9.70;7.20;;;;;;;;;;5042203;28;20185;-63
2021/03/23 05:15:21;;;;;;;8.57;6.87;;;;;;;;;;5047982;28;20204;-63
2021/03/23 05:17:47;;;;;;;8.70;7.63;;;;;;;;;;5022717;28;20277;-64
2021/03/23 05:20:13;;;;;;;10.33;8.37;;;;;;;;;;5012952;28;20206;-63
2021/03/23 05:22:39;;;;;;;10.10;8.27;;;;;;;;;;5033589;28;20220;-64
2021/03/23 05:25:06;;;;;;;9.67;8.10;;;;;;;;;;5032262;28;20177;-64
2021/03/23 05:27:32;;;;;;;10.27;8.17;;;;;;;;;;5034246;28;21311;-63
2021/03/23 05:29:58;;;;;;;10.60;8.70;;;;;;;;;;5038931;28;20587;-63
2021/03/23 05:32:24;;;;;;;8.87;7.97;;;;;;;;;;5013900;28;20649;-63
2021/03/23 05:34:50;;;;;;;13.10;9.33;;;;;;;;;;5027005;28;20670;-63
2021/03/23 05:37:16;;;;;;;10.07;8.90;;;;;;;;;;5046169;28;20248;-63
2021/03/23 05:39:42;;;;;;;11.03;8.13;;;;;;;;;;5047119;28;20172;-63
2021/03/23 05:42:19;;;;;;;11.53;9.60;;;;;;;;;;5049685;28;20184;-63
2021/03/23 05:44:47;;;;;;;10.87;8.83;;;;;;;;;;5013504;28;20197;-64
2021/03/23 05:47:18;;;;;;;12.93;9.70;;;;;;;;;;5030817;28;20189;-63
2021/03/23 05:49:46;;;;;;;10.67;9.07;;;;;;;;;;5045562;28;20692;-63
2021/03/23 05:52:20;;;;;;;15.13;10.63;;;;;;;;;;5046931;28;20188;-63
2021/03/23 05:54:56;;;;;;;12.03;9.90;;;;;;;;;;5034627;28;20174;-63
2021/03/23 05:57:22;;;;;;;12.33;9.17;;;;;;;;;;5029332;28;20270;-63
2021/03/23 05:59:57;;;;;;;11.77;10.17;;;;;;;;;;5041260;28;20640;-63
2021/03/23 06:02:46;;;;;;;12.23;9.53;;;;;;;;;;5028424;28;20535;-63
2021/03/23 06:05:25;;;;;;;11.57;9.50;;;;;;;;;;5019337;28;20189;-63
2021/03/23 06:07:51;;;;;;;11.27;9.60;;;;;;;;;;5024627;28;20180;-63
2021/03/23 06:10:18;;;;;;;10.43;9.37;;;;;;;;;;5041131;28;20177;-62
2021/03/23 06:12:50;;;;;;;12.27;10.37;;;;;;;;;;5029139;28;20217;-63
2021/03/23 06:15:23;;;;;;;10.90;9.13;;;;;;;;;;5019642;28;20196;-63
2021/03/23 06:17:59;;;;;;;12.33;10.30;;;;;;;;;;5045504;28;20190;-64
2021/03/23 06:20:30;;;;;;;11.67;9.73;;;;;;;;;;5058821;28;20728;-65
2021/03/23 06:23:15;;;;;;;12.80;10.43;;;;;;;;;;5057254;28;20201;-62
2021/03/23 06:25:52;;;;;;;14.10;10.70;;;;;;;;;;5034382;28;20201;-62
2021/03/23 06:28:18;;;;;;;11.90;9.73;;;;;;;;;;5038695;28;20192;-60
2021/03/23 06:30:47;;;;;;;15.67;12.30;;;;;;;;;;5059436;28;20184;-62
2021/03/23 06:33:14;;;;;;;12.60;9.97;;;;;;;;;;5042369;28;20235;-63
2021/03/23 06:35:43;;;;;;;13.10;10.67;;;;;;;;;;5052962;28;20539;-63
2021/03/23 06:38:21;;;;;;;14.00;10.40;;;;;;;;;;5050032;28;20573;-62
2021/03/23 06:41:17;;;;;;;13.23;10.77;;;;;;;;;;5051572;28;20185;-63
2021/03/23 06:43:44;;;;;;;12.90;11.37;;;;;;;;;;5033483;28;20225;-62
2021/03/23 06:46:29;;;;;;;15.10;10.83;;;;;;;;;;5054381;28;20593;-63
2021/03/23 06:49:17;;;;;;;14.13;11.07;;;;;;;;;;5056398;28;20593;-62
2021/03/23 06:51:57;;;;;;;12.23;10.30;;;;;;;;;;5035780;28;20239;-62
2021/03/23 06:54:28;;;;;;;15.50;12.33;;;;;;;;;;5066389;28;20179;-63
2021/03/23 06:57:02;;;;;;;15.10;11.67;;;;;;;;;;5062745;28;20667;-63
2021/03/23 06:59:29;;;;;;;17.73;12.53;;;;;;;;;;5062107;28;20176;-63
2021/03/23 07:02:01;;;;;;;15.10;12.03;;;;;;;;;;5035160;28;20178;-62
2021/03/23 07:04:36;;;;;;;14.67;12.17;;;;;;;;;;5051601;28;20338;-62
2021/03/23 07:07:02;;;;;;;13.07;10.57;;;;;;;;;;5063140;28;20161;-63
2021/03/23 07:09:28;;;;;;;14.63;11.27;;;;;;;;;;5031570;28;20176;-62
2021/03/23 07:11:57;;;;;;;13.30;11.43;;;;;;;;;;5031931;28;20569;-62
2021/03/23 07:14:24;;;;;;;13.43;11.93;;;;;;;;;;5049276;28;20648;-64
2021/03/23 07:16:50;;;;;;;15.30;11.37;;;;;;;;;;5036150;28;20177;-62
2021/03/23 07:19:16;;;;;;;15.67;12.43;;;;;;;;;;5070182;28;20199;-63
2021/03/23 07:21:48;;;;;;;17.47;12.60;;;;;;;;;;5054875;28;20259;-62
2021/03/23 07:24:19;;;;;;;14.80;11.60;;;;;;;;;;5054003;28;20229;-62
2021/03/23 07:27:02;;;;;;;15.60;13.03;;;;;;;;;;5056769;28;20182;-62
2021/03/23 07:29:33;;;;;;;15.27;12.10;;;;;;;;;;5061890;28;20199;-62
2021/03/23 07:32:06;;;;;;;15.37;12.93;;;;;;;;;;5054851;28;20204;-63
2021/03/23 07:34:34;;;;;;;15.13;12.47;;;;;;;;;;5059989;28;20177;-63
2021/03/23 07:37:12;;;;;;;12.80;11.27;;;;;;;;;;5029269;28;20177;-62
2021/03/23 07:39:54;;;;;;;15.10;12.63;;;;;;;;;;5045471;28;20236;-62
2021/03/23 07:42:37;;;;;;;16.63;12.13;;;;;;;;;;5053562;28;20209;-63
2021/03/23 07:45:07;;;;;;;16.73;13.33;;;;;;;;;;5066430;28;20165;-58
2021/03/23 07:47:39;;;;;;;22.37;12.50;;;;;;;;;;5049466;28;20268;-58
2021/03/23 07:50:13;;;;;;;21.07;15.77;;;;;;;;;;5060885;28;20196;-59
2021/03/23 07:52:45;;;;;;;20.57;15.37;;;;;;;;;;5059477;28;20188;-62
2021/03/23 07:55:17;;;;;;;22.40;14.63;;;;;;;;;;5046602;28;20180;-62
2021/03/23 07:57:58;;;;;;;19.87;14.73;;;;;;;;;;5048937;28;20227;-63
2021/03/23 08:00:42;;;;;;;23.43;16.07;;;;;;;;;;5050013;28;20191;-62
2021/03/23 08:03:35;;;;;;;22.33;15.63;;;;;;;;;;5048742;28;20220;-61
2021/03/23 08:06:11;;;;;;;23.83;16.20;;;;;;;;;;5047361;28;20189;-62
2021/03/23 08:08:47;;;;;;;18.93;14.90;;;;;;;;;;5050640;28;20252;-61
2021/03/23 08:11:32;;;;;;;23.87;14.90;;;;;;;;;;5048974;28;20640;-63
2021/03/23 08:14:12;;;;;;;18.30;13.40;;;;;;;;;;5032796;28;20181;-63
2021/03/23 08:16:55;;;;;;;20.40;14.33;;;;;;;;;;5030886;28;20176;-62
2021/03/23 08:19:21;;;;;;;23.20;14.70;;;;;;;;;;5050099;28;20684;-62
2021/03/23 08:21:57;;;;;;;18.53;13.43;;;;;;;;;;5031654;28;20189;-62
2021/03/23 08:24:23;;;;;;;19.63;15.10;;;;;;;;;;5051667;28;20279;-62
2021/03/23 08:27:01;;;;;;;20.90;15.30;;;;;;;;;;5031203;28;20284;-62
2021/03/23 08:29:46;;;;;;;20.30;14.63;;;;;;;;;;5049920;28;20173;-62
2021/03/23 08:32:34;;;;;;;20.27;15.10;;;;;;;;;;5049163;28;20185;-63
2021/03/23 08:35:20;;;;;;;20.30;14.53;;;;;;;;;;5049490;28;20169;-62
2021/03/23 08:37:48;;;;;;;21.27;17.47;;;;;;;;;;5048920;28;20405;-62
2021/03/23 08:40:21;;;;;;;21.57;17.57;;;;;;;;;;5030303;28;20440;-61
2021/03/23 08:42:48;;;;;;;20.85;17.52;;;;;;;;;;5046948;28;20914;-61
2021/03/23 08:45:27;;;;;;;23.50;18.25;;;;;;;;;;5048901;28;20885;-62
2021/03/23 08:47:58;;;;;;;22.42;18.33;;;;;;;;;;5030701;28;20821;-61
2021/03/23 08:50:32;;;;;;;20.75;17.73;;;;;;;;;;5050489;28;20401;-61
2021/03/23 08:53:00;;;;;;;21.00;16.88;;;;;;;;;;5044248;28;20731;-61
2021/03/23 08:55:33;;;;;;;21.83;17.98;;;;;;;;;;5030249;28;20401;-61
2021/03/23 08:58:00;;;;;;;21.75;18.33;;;;;;;;;;5047112;28;20402;-61
2021/03/23 09:00:35;;;;;;;22.15;17.55;;;;;;;;;;5049520;28;20397;-61
2021/03/23 09:03:02;;;;;;;19.73;13.80;;;;;;;;;;5049553;28;20250;-62
2021/03/23 09:05:32;;;;;;;18.67;14.27;;;;;;;;;;5046967;28;20189;-61
2021/03/23 09:08:17;;;;;;;23.53;14.57;;;;;;;;;;5032109;28;20173;-62
2021/03/23 09:10:50;;;;;;;18.13;14.63;;;;;;;;;;5024826;28;20181;-62
2021/03/23 09:13:24;;;;;;;18.20;13.60;;;;;;;;;;5031849;28;20177;-63
2021/03/23 09:15:50;;;;;;;17.40;13.30;;;;;;;;;;5049190;28;20172;-62
2021/03/23 09:18:16;;;;;;;19.43;14.40;;;;;;;;;;5029419;28;20185;-63
2021/03/23 09:20:42;;;;;;;19.20;13.87;;;;;;;;;;5031881;28;20188;-61
2021/03/23 09:23:18;;;;;;;25.33;13.60;;;;;;;;;;5050968;28;20676;-63
2021/03/23 09:25:50;;;;;;;19.23;14.00;;;;;;;;;;5050219;28;20238;-63
2021/03/23 09:28:32;;;;;;;23.23;13.47;;;;;;;;;;5030590;28;20227;-62
2021/03/23 09:30:59;;;;;;;22.30;13.53;;;;;;;;;;5051829;28;20169;-63
2021/03/23 09:33:25;;;;;;;18.20;13.43;;;;;;;;;;5027232;28;20185;-62
2021/03/23 09:38:37;;;;;;;21.60;13.23;;;;;;;;;;5045360;28;20290;-62
2021/03/23 09:41:06;;;;;;;17.87;12.43;;;;;;;;;;5037553;28;20612;-62
2021/03/23 09:43:32;;;;;;;14.97;12.40;;;;;;;;;;5029080;28;20209;-63
2021/03/23 09:46:18;;;;;;;19.03;12.67;;;;;;;;;;5039434;28;20256;-63
2021/03/23 09:48:47;;;;;;;20.07;12.07;;;;;;;;;;4975588;28;20315;-62
2021/03/23 09:51:26;;;;;;;15.83;12.30;;;;;;;;;;5044869;28;20188;-62
2021/03/23 09:53:54;;;;;;;14.80;12.23;;;;;;;;;;5031204;28;20173;-62
2021/03/23 09:56:24;;;;;;;18.93;13.30;;;;;;;;;;5045963;28;20189;-62
2021/03/23 09:59:07;;;;;;;15.70;11.97;;;;;;;;;;5042850;28;20651;-62
2021/03/23 10:01:35;;;;;;;25.77;13.37;;;;;;;;;;5041931;28;20652;-62
2021/03/23 10:04:03;;;;;;;17.13;11.97;;;;;;;;;;5047159;28;20193;-62
2021/03/23 10:06:30;;;;;;;15.17;12.70;;;;;;;;;;5046681;28;20162;-62
2021/03/23 10:08:56;;;;;;;16.13;12.50;;;;;;;;;;5047353;28;20185;-62
2021/03/23 10:11:23;;;;;;;16.80;13.47;;;;;;;;;;5025663;28;20178;-64
2021/03/23 10:13:50;;;;;;;14.83;11.53;;;;;;;;;;5028916;28;20184;-62
2021/03/23 10:16:35;;;;;;;17.60;12.47;;;;;;;;;;5046130;28;20182;-62
2021/03/23 10:19:06;;;;;;;14.80;11.15;;;;;;;;;;5026947;28;20236;-64
2021/03/23 10:21:34;;;;;;;14.17;10.97;;;;;;;;;;5045606;28;20232;-63
2021/03/23 10:24:02;;;;;;;17.20;11.87;;;;;;;;;;5029465;28;20237;-63
2021/03/23 10:26:40;;;;;;;13.63;10.17;;;;;;;;;;5046104;28;20279;-63
2021/03/23 10:29:17;;;;;;;17.07;11.50;;;;;;;;;;5028958;28;20640;-62
2021/03/23 10:31:46;;;;;;;15.80;11.00;;;;;;;;;;5039252;28;20204;-65
2021/03/23 10:34:14;;;;;;;17.17;10.50;;;;;;;;;;5024308;28;20280;-63
2021/03/23 10:36:42;;;;;;;17.67;10.43;;;;;;;;;;5044516;28;20185;-62
2021/03/23 10:39:25;;;;;;;13.77;10.23;;;;;;;;;;5044637;28;20195;-64
2021/03/23 10:41:51;;;;;;;15.73;11.03;;;;;;;;;;5042454;28;20549;-62
2021/03/23 10:44:22;;;;;;;13.47;10.47;;;;;;;;;;5044613;28;20540;-63
2021/03/23 10:46:48;;;;;;;12.77;9.63;;;;;;;;;;5025538;28;20169;-63
2021/03/23 10:49:27;;;;;;;13.33;10.10;;;;;;;;;;5026828;28;21097;-62
2021/03/23 10:51:55;;;;;;;12.13;10.03;;;;;;;;;;5025900;28;20177;-62
2021/03/23 10:54:25;;;;;;;14.33;10.70;;;;;;;;;;5046377;28;20264;-63
2021/03/23 10:56:59;;;;;;;16.47;10.67;;;;;;;;;;5044415;28;20181;-62
2021/03/23 10:59:25;;;;;;;12.07;10.37;;;;;;;;;;5044623;28;20211;-63
2021/03/23 11:01:57;;;;;;;15.10;10.47;;;;;;;;;;5041411;28;20182;-63
2021/03/23 11:04:24;;;;;;;15.47;10.20;;;;;;;;;;5043838;28;20275;-63
2021/03/23 11:06:50;;;;;;;15.80;10.90;;;;;;;;;;5043427;28;20589;-62
2021/03/23 11:09:18;;;;;;;14.80;11.23;;;;;;;;;;5047404;28;20261;-63
2021/03/23 11:11:45;;;;;;;13.47;10.37;;;;;;;;;;5028891;28;20666;-62
2021/03/23 11:14:11;;;;;;;13.73;10.20;;;;;;;;;;5044822;28;20181;-62
2021/03/23 11:16:39;;;;;;;15.20;11.13;;;;;;;;;;5044433;28;20227;-65
2021/03/23 11:19:11;;;;;;;14.53;11.40;;;;;;;;;;5044964;28;21063;-63
2021/03/23 11:21:40;;;;;;;12.57;10.03;;;;;;;;;;5027619;28;20170;-63
2021/03/23 11:24:07;;;;;;;17.40;10.67;;;;;;;;;;5044857;28;20205;-62
2021/03/23 11:26:33;;;;;;;15.70;11.60;;;;;;;;;;5045972;28;20177;-64
2021/03/23 11:29:04;;;;;;;12.00;10.63;;;;;;;;;;5047403;28;20166;-63
2021/03/23 11:31:31;;;;;;;15.50;11.33;;;;;;;;;;5021042;28;20208;-62
2021/03/23 11:33:59;;;;;;;17.80;11.13;;;;;;;;;;5030198;28;20859;-63
2021/03/23 11:36:27;;;;;;;17.93;11.43;;;;;;;;;;5024324;28;20217;-62
2021/03/23 11:38:53;;;;;;;14.87;10.87;;;;;;;;;;5028481;28;20269;-63
2021/03/23 11:41:33;;;;;;;16.47;11.00;;;;;;;;;;5024729;28;20530;-62
2021/03/23 11:44:01;;;;;;;14.33;10.00;;;;;;;;;;5027284;28;20656;-62
2021/03/23 11:46:41;;;;;;;17.00;12.20;;;;;;;;;;5002452;28;20630;-62
2021/03/23 11:49:20;;;;;;;14.87;11.10;;;;;;;;;;5013145;28;20543;-63
2021/03/23 11:51:47;;;;;;;15.07;10.67;;;;;;;;;;5024890;28;20172;-62
2021/03/23 11:54:14;;;;;;;15.07;11.67;;;;;;;;;;5008295;28;20622;-63
2021/03/23 11:56:40;;;;;;;17.13;11.20;;;;;;;;;;5024213;28;20597;-63
2021/03/23 11:59:07;;;;;;;17.27;11.60;;;;;;;;;;5025732;28;20273;-62
2021/03/23 12:01:33;;;;;;;16.27;11.97;;;;;;;;;;5024622;28;20187;-62
2021/03/23 12:03:59;;;;;;;12.90;11.20;;;;;;;;;;5027078;28;20229;-63
2021/03/23 12:06:34;;;;;;;14.03;10.43;;;;;;;;;;5022234;28;20192;-63
2021/03/23 12:09:01;;;;;;;15.17;10.83;;;;;;;;;;5028186;28;20613;-62
2021/03/23 12:11:50;;;;;;;14.77;10.63;;;;;;;;;;5025730;28;20178;-62
2021/03/23 12:14:23;;;;;;;16.10;11.60;;;;;;;;;;5030786;28;20181;-62
2021/03/23 12:16:56;;;;;;;16.53;11.77;;;;;;;;;;5029173;28;20228;-63
2021/03/23 12:19:23;;;;;;;16.43;10.93;;;;;;;;;;5012241;28;20196;-62
2021/03/23 12:21:50;;;;;;;14.60;11.93;;;;;;;;;;5029434;28;20236;-62
2021/03/23 12:24:16;;;;;;;14.77;11.30;;;;;;;;;;5027795;28;20244;-62
2021/03/23 12:26:42;;;;;;;15.17;12.33;;;;;;;;;;5013300;28;20193;-62
2021/03/23 12:29:08;;;;;;;13.50;11.17;;;;;;;;;;5031739;28;20200;-64
2021/03/23 12:31:35;;;;;;;19.60;11.43;;;;;;;;;;5010715;28;20213;-63
2021/03/23 12:34:01;;;;;;;13.93;10.77;;;;;;;;;;5027900;28;20178;-63
2021/03/23 12:36:28;;;;;;;14.03;11.70;;;;;;;;;;5028463;28;20189;-62
2021/03/23 12:38:54;;;;;;;14.17;10.47;;;;;;;;;;5047640;28;20691;-63
2021/03/23 12:41:26;;;;;;;16.13;12.20;;;;;;;;;;5047754;28;20257;-62
2021/03/23 12:43:52;;;;;;;15.07;12.23;;;;;;;;;;5049610;28;20204;-61
2021/03/23 12:46:18;;;;;;;14.30;11.23;;;;;;;;;;5024469;28;20189;-62
2021/03/23 12:48:45;;;;;;;16.67;10.33;;;;;;;;;;5048807;28;20181;-62
2021/03/23 12:51:22;;;;;;;15.43;11.07;;;;;;;;;;5046856;28;20182;-62
2021/03/23 12:53:48;;;;;;;13.10;10.37;;;;;;;;;;5048749;28;20632;-63
2021/03/23 12:56:14;;;;;;;16.50;12.60;;;;;;;;;;5028500;28;20429;-62
2021/03/23 12:58:43;;;;;;;11.57;10.33;;;;;;;;;;5048963;28;20181;-62
2021/03/23 13:01:09;;;;;;;14.97;11.27;;;;;;;;;;5047207;28;20181;-63
2021/03/23 13:03:35;;;;;;;13.90;10.37;;;;;;;;;;5046902;28;20241;-62
2021/03/23 13:06:01;;;;;;;13.40;10.73;;;;;;;;;;5051988;28;20173;-63
2021/03/23 13:08:33;;;;;;;13.10;10.23;;;;;;;;;;5050244;28;20255;-63
2021/03/23 13:11:25;;;;;;;12.53;10.70;;;;;;;;;;5034924;28;20173;-65
2021/03/23 13:14:01;;;;;;;13.10;10.43;;;;;;;;;;5045432;28;20609;-62
2021/03/23 13:16:29;;;;;;;12.90;10.00;;;;;;;;;;5024736;28;20771;-63
2021/03/23 13:18:55;;;;;;;18.40;11.13;;;;;;;;;;5050006;28;20185;-63
2021/03/23 13:21:32;;;;;;;13.60;11.03;;;;;;;;;;5046420;28;20186;-62
2021/03/23 13:24:03;;;;;;;14.67;11.10;;;;;;;;;;5032333;28;20725;-62
2021/03/23 13:26:30;;;;;;;15.03;10.70;;;;;;;;;;5030294;28;20181;-62
2021/03/23 13:29:06;;;;;;;13.87;11.10;;;;;;;;;;5032545;28;20517;-63
2021/03/23 13:31:33;;;;;;;13.60;11.10;;;;;;;;;;5046966;28;20208;-62
2021/03/23 13:34:00;;;;;;;12.80;10.73;;;;;;;;;;5045773;28;20244;-62
2021/03/23 13:36:29;;;;;;;12.10;10.67;;;;;;;;;;5050276;28;20181;-63
2021/03/23 13:38:55;;;;;;;15.33;11.37;;;;;;;;;;5051186;28;20221;-62
2021/03/23 13:41:23;;;;;;;11.33;9.87;;;;;;;;;;5035712;28;20220;-62
2021/03/23 13:43:53;;;;;;;13.77;12.37;;;;;;;;;;5043085;28;20204;-62
2021/03/23 13:46:37;;;;;;;15.87;11.47;;;;;;;;;;5048539;28;20581;-63
2021/03/23 13:49:03;;;;;;;11.47;10.23;;;;;;;;;;5054199;28;20355;-62
2021/03/23 13:51:30;;;;;;;13.33;10.90;;;;;;;;;;5050043;28;20250;-63
2021/03/23 13:53:56;;;;;;;13.17;11.03;;;;;;;;;;5061388;28;20183;-63
2021/03/23 13:56:22;;;;;;;13.20;10.53;;;;;;;;;;5050738;28;20177;-62
2021/03/23 13:58:48;;;;;;;14.30;10.77;;;;;;;;;;5050170;28;20177;-62
2021/03/23 14:01:14;;;;;;;14.13;11.03;;;;;;;;;;5042676;28;20536;-65
2021/03/23 14:03:41;;;;;;;13.90;11.20;;;;;;;;;;5045995;28;20190;-62
2021/03/23 14:06:07;;;;;;;12.27;9.77;;;;;;;;;;5057044;28;20177;-63
2021/03/23 14:08:38;;;;;;;12.53;9.70;;;;;;;;;;5041267;28;20178;-61
2021/03/23 14:11:05;;;;;;;13.53;10.97;;;;;;;;;;5041922;28;20227;-65
2021/03/23 14:13:31;;;;;;;12.60;9.30;;;;;;;;;;5044700;28;20633;-62
2021/03/23 14:15:57;;;;;;;11.40;10.20;;;;;;;;;;5022387;28;20216;-61
2021/03/23 14:18:24;;;;;;;12.90;10.07;;;;;;;;;;5043899;28;20552;-62
2021/03/23 14:20:52;;;;;;;13.83;10.47;;;;;;;;;;5029733;28;20268;-60
2021/03/23 14:23:23;;;;;;;14.47;11.10;;;;;;;;;;5043290;28;20556;-61
2021/03/23 14:25:51;;;;;;;14.80;11.77;;;;;;;;;;5017617;28;20300;-64
2021/03/23 14:28:22;;;;;;;19.30;10.40;;;;;;;;;;5038100;28;20169;-62
2021/03/23 14:30:48;;;;;;;13.63;11.83;;;;;;;;;;5038382;28;20182;-60
2021/03/23 14:33:14;;;;;;;12.63;10.97;;;;;;;;;;5034088;28;20609;-60
2021/03/23 14:35:41;;;;;;;15.57;11.40;;;;;;;;;;5027285;28;20178;-61
2021/03/23 14:38:07;;;;;;;15.73;12.90;;;;;;;;;;5034828;28;20213;-61
2021/03/23 14:40:35;;;;;;;13.57;11.63;;;;;;;;;;5010166;28;20671;-62
2021/03/23 14:43:03;;;;;;;14.27;11.27;;;;;;;;;;5034312;28;20204;-61
2021/03/23 14:45:30;;;;;;;15.33;11.27;;;;;;;;;;5049395;28;20603;-62